Time;durP1;ratioP1;P1;durP2;ratioP2;P2;SDS_P1;SDS_P2;PMS_P1;PMS_P2;Temp;Humidity;BMP_temperature;BMP_pressure;BME280_temperature;BME280_humidity;BME280_pressure;Samples;Min_cycle;Max_cycle;Signal;HPM_P1;HPM_P2
2021/09/19 00:01:32;;;;;;;9.35;7.45;;;17.70;92.90;;;;;;4988438;28;20194;-78
2021/09/19 00:03:58;;;;;;;11.50;7.20;;;17.70;93.00;;;;;;4977332;28;20294;-78
2021/09/19 00:06:25;;;;;;;10.10;7.20;;;17.70;93.10;;;;;;4988891;28;20231;-74
2021/09/19 00:08:51;;;;;;;10.32;7.18;;;17.70;93.20;;;;;;4973955;28;20650;-78
2021/09/19 00:11:16;;;;;;;10.25;7.20;;;17.60;93.30;;;;;;4983878;28;20189;-77
2021/09/19 00:13:42;;;;;;;8.55;6.70;;;17.60;93.50;;;;;;4959244;28;21924;-80
2021/09/19 00:16:08;;;;;;;10.85;6.85;;;17.50;93.50;;;;;;4970232;28;20250;-78
2021/09/19 00:18:34;;;;;;;9.25;6.82;;;17.50;93.60;;;;;;4975039;28;20189;-77
2021/09/19 00:20:59;;;;;;;8.82;7.28;;;17.50;93.80;;;;;;4989311;28;20251;-79
2021/09/19 00:23:25;;;;;;;10.13;6.82;;;17.50;93.90;;;;;;4973356;28;20198;-77
2021/09/19 00:25:51;;;;;;;8.35;6.72;;;17.40;93.90;;;;;;4985086;28;20256;-79
2021/09/19 00:28:16;;;;;;;10.88;7.13;;;17.40;94.00;;;;;;4968017;28;20188;-77
2021/09/19 00:30:43;;;;;;;8.55;6.82;;;17.40;94.10;;;;;;4983482;28;20192;-76
2021/09/19 00:33:09;;;;;;;9.45;7.32;;;17.30;94.20;;;;;;4982989;28;20207;-78
2021/09/19 00:35:35;;;;;;;9.45;6.85;;;17.30;94.30;;;;;;4965042;28;20279;-77
2021/09/19 00:38:01;;;;;;;8.98;6.88;;;17.30;94.50;;;;;;4978136;28;20273;-76
2021/09/19 00:40:27;;;;;;;8.65;7.15;;;17.20;94.50;;;;;;4992584;28;20186;-76
2021/09/19 00:42:52;;;;;;;9.00;6.73;;;17.20;94.60;;;;;;4974053;28;20240;-75
2021/09/19 00:45:20;;;;;;;10.77;6.70;;;17.20;94.70;;;;;;4984321;28;20189;-76
2021/09/19 00:47:47;;;;;;;8.73;6.88;;;17.20;94.80;;;;;;5002167;28;20248;-75
2021/09/19 00:50:16;;;;;;;10.68;7.60;;;17.20;94.90;;;;;;4972326;28;20221;-75
2021/09/19 00:52:43;;;;;;;9.02;7.53;;;17.10;95.00;;;;;;4973102;28;20193;-77
2021/09/19 00:55:09;;;;;;;9.52;7.00;;;17.10;95.10;;;;;;4959283;28;20957;-75
2021/09/19 00:57:39;;;;;;;;;;;17.10;95.20;;;;;;4956867;28;20215;-75
2021/09/19 01:00:05;;;;;;;;;;;17.10;95.30;;;;;;4984413;28;20472;-75
2021/09/19 01:02:31;;;;;;;9.85;7.32;;;17.10;95.40;;;;;;4977070;28;20429;-76
2021/09/19 01:04:58;;;;;;;11.65;8.57;;;17.10;95.50;;;;;;4988762;28;20190;-76
2021/09/19 01:07:24;;;;;;;10.75;8.07;;;17.00;95.70;;;;;;4995756;28;20220;-77
2021/09/19 01:09:51;;;;;;;9.93;7.78;;;17.00;95.60;;;;;;4987185;28;20220;-77
2021/09/19 01:12:20;;;;;;;13.75;8.27;;;17.00;95.70;;;;;;4995804;28;20188;-76
2021/09/19 01:14:47;;;;;;;10.15;8.55;;;17.00;95.80;;;;;;4991765;28;20180;-73
2021/09/19 01:17:14;;;;;;;11.27;8.43;;;17.00;95.90;;;;;;4989425;28;20563;-74
2021/09/19 01:19:40;;;;;;;9.85;8.70;;;17.00;96.00;;;;;;4989489;28;20286;-76
2021/09/19 01:22:06;;;;;;;13.15;8.75;;;16.90;96.00;;;;;;4990911;28;20189;-75
2021/09/19 01:24:33;;;;;;;15.52;9.13;;;16.90;96.10;;;;;;4973726;28;20948;-75
2021/09/19 01:26:59;;;;;;;17.20;9.45;;;16.90;96.20;;;;;;4973720;28;20269;-77
2021/09/19 01:29:24;;;;;;;12.73;9.70;;;16.90;96.30;;;;;;4969723;28;20202;-77
2021/09/19 01:31:50;;;;;;;13.32;9.93;;;16.90;96.40;;;;;;4980569;28;20225;-77
2021/09/19 01:34:16;;;;;;;11.90;9.13;;;16.80;96.50;;;;;;4976496;28;20189;-79
2021/09/19 01:36:41;;;;;;;14.18;10.38;;;16.80;97.00;;;;;;4989187;28;20228;-76
2021/09/19 01:39:08;;;;;;;12.10;9.63;;;16.80;96.70;;;;;;4999453;28;20211;-76
2021/09/19 01:41:34;;;;;;;13.15;9.82;;;16.80;96.80;;;;;;4974153;28;20193;-78
2021/09/19 01:44:01;;;;;;;13.52;10.57;;;16.80;96.90;;;;;;4993238;28;20184;-76
2021/09/19 01:46:27;;;;;;;13.07;10.65;;;16.80;97.00;;;;;;4998503;28;20192;-76
2021/09/19 01:48:52;;;;;;;16.25;10.95;;;16.80;97.10;;;;;;4993709;28;20193;-76
2021/09/19 01:51:18;;;;;;;12.60;10.63;;;16.70;97.20;;;;;;4962195;28;20199;-76
2021/09/19 01:53:44;;;;;;;15.35;11.20;;;16.70;97.30;;;;;;4996283;28;20192;-77
2021/09/19 01:56:10;;;;;;;14.15;11.23;;;16.70;97.40;;;;;;4978936;28;20231;-77
2021/09/19 01:58:44;;;;;;;14.82;11.10;;;16.70;97.50;;;;;;4972125;28;20564;-75
2021/09/19 02:01:10;;;;;;;14.00;11.02;;;16.60;97.50;;;;;;4979974;28;20197;-74
2021/09/19 02:03:37;;;;;;;14.38;10.75;;;16.60;97.60;;;;;;4997007;28;20188;-74
2021/09/19 02:06:04;;;;;;;15.23;11.25;;;16.60;98.10;;;;;;4968938;28;20314;-75
2021/09/19 02:08:30;;;;;;;16.40;11.80;;;16.60;97.80;;;;;;4996966;28;20732;-75
2021/09/19 02:10:56;;;;;;;15.40;11.20;;;16.60;97.90;;;;;;4989371;28;20193;-76
2021/09/19 02:13:21;;;;;;;14.35;11.40;;;16.60;98.00;;;;;;4992285;28;20669;-74
2021/09/19 02:15:47;;;;;;;14.75;11.70;;;16.60;98.00;;;;;;4992475;28;20197;-77
2021/09/19 02:18:12;;;;;;;15.93;11.75;;;16.60;98.10;;;;;;4975408;28;20193;-77
2021/09/19 02:20:38;;;;;;;14.30;11.82;;;16.50;98.10;;;;;;4993529;28;20188;-78
2021/09/19 02:23:04;;;;;;;16.77;11.48;;;16.60;98.20;;;;;;5000408;28;20196;-75
2021/09/19 02:25:29;;;;;;;14.38;11.43;;;16.50;98.30;;;;;;4989735;28;20250;-77
2021/09/19 02:27:55;;;;;;;15.25;11.13;;;16.50;98.40;;;;;;4987108;28;20190;-74
2021/09/19 02:30:21;;;;;;;15.80;11.38;;;16.50;98.50;;;;;;4979926;28;20755;-75
2021/09/19 02:32:46;;;;;;;13.40;10.95;;;16.50;98.60;;;;;;4962736;28;20232;-71
2021/09/19 02:35:14;;;;;;;14.93;11.65;;;16.50;98.70;;;;;;4989310;28;20185;-73
2021/09/19 02:37:41;;;;;;;13.85;11.00;;;16.40;98.70;;;;;;4998332;28;20216;-78
2021/09/19 02:40:09;;;;;;;16.20;11.68;;;16.40;98.80;;;;;;4979317;28;20623;-78
2021/09/19 02:42:36;;;;;;;18.33;12.20;;;16.40;98.90;;;;;;4996844;28;20672;-75
2021/09/19 02:45:03;;;;;;;13.48;11.32;;;16.40;98.90;;;;;;4977628;28;20574;-76
2021/09/19 02:47:29;;;;;;;15.75;12.25;;;16.40;99.00;;;;;;4985136;28;20187;-76
2021/09/19 02:49:55;;;;;;;13.88;11.43;;;16.30;99.00;;;;;;4986675;28;20659;-78
2021/09/19 02:52:20;;;;;;;14.65;11.73;;;16.30;99.10;;;;;;4973807;28;20185;-75
2021/09/19 02:54:46;;;;;;;14.63;11.80;;;16.30;99.10;;;;;;4971000;28;20329;-75
2021/09/19 02:57:11;;;;;;;15.68;12.00;;;16.30;99.20;;;;;;4966047;28;20209;-75
2021/09/19 02:59:37;;;;;;;13.52;11.73;;;16.30;99.30;;;;;;4990463;28;20188;-76
2021/09/19 03:02:03;;;;;;;14.40;11.85;;;16.30;99.30;;;;;;4970356;28;20182;-75
2021/09/19 03:04:28;;;;;;;17.05;12.60;;;16.30;99.40;;;;;;4964970;28;20223;-75
2021/09/19 03:06:54;;;;;;;;;;;16.20;99.50;;;;;;4983924;28;20174;-76
2021/09/19 03:09:19;;;;;;;14.18;12.38;;;16.20;99.50;;;;;;4958817;28;20192;-74
2021/09/19 03:11:45;;;;;;;15.48;12.90;;;16.20;99.60;;;;;;4988863;28;20230;-75
2021/09/19 03:14:10;;;;;;;15.10;12.75;;;16.20;99.70;;;;;;4972188;28;20331;-77
2021/09/19 03:16:36;;;;;;;15.57;13.30;;;16.20;99.70;;;;;;4985035;28;20214;-74
2021/09/19 03:19:02;;;;;;;15.00;12.02;;;16.20;99.80;;;;;;4981891;28;20240;-75
2021/09/19 03:21:27;;;;;;;14.43;12.38;;;16.20;99.90;;;;;;5003755;28;20185;-74
2021/09/19 03:23:53;;;;;;;17.55;13.43;;;16.20;99.90;;;;;;4973165;28;20214;-74
2021/09/19 03:26:19;;;;;;;15.32;12.50;;;16.10;99.90;;;;;;4973470;28;20276;-76
2021/09/19 03:28:44;;;;;;;15.75;12.73;;;16.10;99.90;;;;;;4979983;28;20189;-76
2021/09/19 03:31:10;;;;;;;16.15;12.80;;;16.10;99.90;;;;;;4995177;28;20406;-78
2021/09/19 03:33:35;;;;;;;16.40;13.18;;;16.10;99.90;;;;;;4985420;28;20238;-78
2021/09/19 03:36:01;;;;;;;16.35;13.35;;;16.10;99.90;;;;;;4981018;28;20209;-77
2021/09/19 03:38:27;;;;;;;16.48;12.93;;;16.10;99.90;;;;;;4993436;28;20185;-78
2021/09/19 03:40:52;;;;;;;16.23;13.75;;;16.10;99.90;;;;;;4983359;28;20197;-77
2021/09/19 03:43:18;;;;;;;17.15;14.23;;;16.10;99.90;;;;;;4980712;28;20182;-77
2021/09/19 03:45:43;;;;;;;16.60;14.07;;;16.10;99.90;;;;;;4981231;28;20192;-76
2021/09/19 03:48:09;;;;;;;20.27;14.07;;;16.00;99.90;;;;;;4966407;28;20753;-77
2021/09/19 03:50:36;;;;;;;20.90;14.20;;;16.00;99.90;;;;;;4987192;28;20193;-76
2021/09/19 03:53:02;;;;;;;18.58;14.07;;;16.00;99.90;;;;;;4975671;28;20193;-76
2021/09/19 03:55:27;;;;;;;17.48;14.57;;;16.00;99.90;;;;;;4987390;28;20189;-75
2021/09/19 03:57:53;;;;;;;18.15;14.40;;;16.00;99.90;;;;;;4990691;28;20213;-75
2021/09/19 04:00:19;;;;;;;18.45;14.52;;;16.00;99.90;;;;;;4978475;28;20795;-76
2021/09/19 04:02:45;;;;;;;16.90;14.48;;;16.00;99.90;;;;;;4973991;28;20242;-76
2021/09/19 04:05:12;;;;;;;18.17;14.32;;;16.00;99.90;;;;;;4989491;28;20680;-78
2021/09/19 04:07:38;;;;;;;17.67;14.35;;;15.90;99.90;;;;;;4994703;28;20223;-77
2021/09/19 04:10:06;;;;;;;18.67;14.60;;;15.90;99.90;;;;;;4977019;28;20201;-77
2021/09/19 04:12:32;;;;;;;17.67;14.27;;;15.90;99.90;;;;;;4961096;28;20263;-78
2021/09/19 04:14:58;;;;;;;19.60;14.18;;;15.90;99.90;;;;;;4993332;28;20199;-79
2021/09/19 04:17:24;;;;;;;20.00;14.48;;;15.80;99.90;;;;;;4980914;28;20216;-77
2021/09/19 04:19:50;;;;;;;18.13;14.98;;;15.80;99.90;;;;;;4991524;28;20560;-77
2021/09/19 04:22:16;;;;;;;19.05;14.95;;;15.80;99.90;;;;;;4977726;28;20193;-77
2021/09/19 04:24:42;;;;;;;19.15;14.75;;;15.80;99.90;;;;;;4988714;28;20243;-78
2021/09/19 04:27:08;;;;;;;18.20;14.57;;;15.80;99.90;;;;;;4984921;28;20189;-78
2021/09/19 04:29:34;;;;;;;20.38;16.17;;;15.80;99.90;;;;;;4983067;28;20225;-77
2021/09/19 04:32:01;;;;;;;20.50;15.65;;;15.80;99.90;;;;;;4988831;28;20189;-77
2021/09/19 04:34:27;;;;;;;18.98;15.23;;;15.80;99.90;;;;;;4963650;28;20666;-77
2021/09/19 04:36:53;;;;;;;20.95;16.23;;;15.70;99.90;;;;;;4978966;28;20208;-77
2021/09/19 04:39:19;;;;;;;17.50;15.00;;;15.70;99.90;;;;;;4969328;28;20192;-76
2021/09/19 04:41:45;;;;;;;19.83;15.68;;;15.70;99.90;;;;;;4978780;28;20185;-75
2021/09/19 04:44:10;;;;;;;19.77;15.38;;;15.70;99.90;;;;;;4971759;28;20182;-76
2021/09/19 04:46:36;;;;;;;21.38;15.57;;;15.70;99.90;;;;;;4986398;28;20901;-77
2021/09/19 04:49:02;;;;;;;17.98;15.30;;;15.70;99.90;;;;;;4977114;28;20196;-78
2021/09/19 04:51:27;;;;;;;16.95;14.68;;;15.60;99.90;;;;;;4983165;28;20194;-77
2021/09/19 04:53:53;;;;;;;21.00;15.88;;;15.60;99.90;;;;;;4987564;28;20245;-78
2021/09/19 04:56:19;;;;;;;20.40;15.82;;;15.60;99.90;;;;;;4960552;28;21002;-75
2021/09/19 04:58:45;;;;;;;18.20;15.05;;;15.60;99.90;;;;;;4990833;28;20763;-76
2021/09/19 05:01:10;;;;;;;21.27;16.00;;;15.60;99.90;;;;;;4972143;28;20192;-78
2021/09/19 05:03:36;;;;;;;22.45;16.30;;;15.50;99.90;;;;;;4975408;28;20267;-74
2021/09/19 05:06:01;;;;;;;21.63;16.25;;;15.50;99.90;;;;;;4970085;28;20308;-74
2021/09/19 05:08:27;;;;;;;23.10;16.88;;;15.50;99.90;;;;;;4968811;28;20194;-75
2021/09/19 05:10:53;;;;;;;20.65;15.70;;;15.50;99.90;;;;;;4973399;28;20220;-75
2021/09/19 05:13:19;;;;;;;19.00;16.15;;;15.50;99.90;;;;;;4976408;28;20198;-75
2021/09/19 05:15:44;;;;;;;22.10;16.30;;;15.40;99.90;;;;;;4989656;28;20288;-75
2021/09/19 05:18:11;;;;;;;21.35;16.27;;;15.40;99.90;;;;;;4978571;28;20189;-74
2021/09/19 05:20:36;;;;;;;19.38;15.93;;;15.40;99.90;;;;;;4980096;28;20193;-74
2021/09/19 05:23:02;;;;;;;20.65;15.85;;;15.40;99.90;;;;;;4985950;28;20242;-75
2021/09/19 05:25:28;;;;;;;23.00;17.55;;;15.40;99.90;;;;;;4967836;28;20689;-75
2021/09/19 05:27:53;;;;;;;22.92;15.77;;;15.40;99.90;;;;;;4974819;28;20189;-73
2021/09/19 05:30:19;;;;;;;19.95;15.85;;;15.40;99.90;;;;;;4974069;28;20193;-75
2021/09/19 05:32:45;;;;;;;23.35;17.45;;;15.40;99.90;;;;;;4970991;28;20259;-73
2021/09/19 05:35:11;;;;;;;21.40;16.30;;;15.40;99.90;;;;;;4977909;28;20186;-74
2021/09/19 05:37:37;;;;;;;22.20;16.92;;;15.40;99.90;;;;;;4977675;28;20249;-76
2021/09/19 05:40:04;;;;;;;21.55;16.13;;;15.40;99.90;;;;;;4985869;28;20559;-75
2021/09/19 05:42:30;;;;;;;22.38;17.38;;;15.40;99.90;;;;;;4979491;28;20188;-75
2021/09/19 05:44:55;;;;;;;21.73;16.38;;;15.40;99.90;;;;;;4975541;28;20191;-76
2021/09/19 05:47:21;;;;;;;22.52;16.85;;;15.40;99.90;;;;;;4994443;28;20626;-76
2021/09/19 05:49:47;;;;;;;27.17;17.17;;;15.40;99.90;;;;;;4989694;28;20195;-76
2021/09/19 05:52:12;;;;;;;21.67;16.95;;;15.40;99.90;;;;;;4975953;28;20651;-75
2021/09/19 05:54:38;;;;;;;22.13;16.90;;;15.40;99.90;;;;;;4981938;28;20661;-75
2021/09/19 05:57:04;;;;;;;21.25;16.75;;;15.40;99.90;;;;;;4967830;28;20217;-75
2021/09/19 05:59:30;;;;;;;23.17;16.92;;;15.40;99.90;;;;;;4970373;28;20659;-75
2021/09/19 06:01:55;;;;;;;22.92;17.17;;;15.40;99.90;;;;;;4982018;28;20192;-73
2021/09/19 06:04:22;;;;;;;22.58;16.75;;;15.50;99.90;;;;;;4972390;28;20237;-74
2021/09/19 06:06:48;;;;;;;21.17;16.13;;;15.40;99.90;;;;;;4981438;28;20230;-75
2021/09/19 06:09:14;;;;;;;;;;;15.50;99.90;;;;;;4991423;28;20012;-72
2021/09/19 06:11:41;;;;;;;;;;;15.50;99.90;;;;;;4980508;28;19954;-75
2021/09/19 06:14:06;;;;;;;;;;;15.50;99.90;;;;;;4977066;28;20001;-75
2021/09/19 06:16:32;;;;;;;;;;;15.50;99.90;;;;;;4988252;28;20005;-74
2021/09/19 06:18:58;;;;;;;;;;;15.50;99.90;;;;;;4963131;28;20411;-76
2021/09/19 06:21:23;;;;;;;;;;;15.50;99.90;;;;;;4974276;28;19950;-75
2021/09/19 06:23:49;;;;;;;;;;;15.60;99.90;;;;;;4992876;28;19968;-75
2021/09/19 06:26:14;;;;;;;;;;;15.60;99.90;;;;;;4972494;28;20495;-75
2021/09/19 06:28:40;;;;;;;;;;;15.60;99.90;;;;;;4969948;28;19954;-73
2021/09/19 06:31:05;;;;;;;;;;;15.70;99.90;;;;;;4968111;28;20420;-76
2021/09/19 06:33:32;;;;;;;;;;;15.60;99.90;;;;;;4971609;28;19951;-75
2021/09/19 06:35:57;;;;;;;;;;;15.70;99.90;;;;;;4966905;28;20442;-75
2021/09/19 06:38:23;;;;;;;;;;;15.70;99.90;;;;;;4973729;28;19951;-75
2021/09/19 06:40:48;;;;;;;;;;;15.70;99.90;;;;;;4969585;28;19955;-74
2021/09/19 06:43:14;;;;;;;;;;;15.80;99.90;;;;;;4973782;28;20495;-76
2021/09/19 06:45:39;;;;;;;;;;;15.80;99.90;;;;;;4968234;28;19954;-73
2021/09/19 06:48:05;;;;;;;;;;;15.80;99.90;;;;;;4972288;28;20329;-73
2021/09/19 06:50:30;;;;;;;;;;;15.90;99.90;;;;;;4989437;28;19950;-73
2021/09/19 06:52:56;;;;;;;;;;;15.90;99.90;;;;;;4995561;28;20157;-73
2021/09/19 06:55:22;;;;;;;;;;;15.90;99.90;;;;;;4969138;28;19950;-73
2021/09/19 06:57:53;;;;;;;;;;;16.00;99.90;;;;;;4967035;28;19963;-72
2021/09/19 07:00:18;;;;;;;20.55;16.30;;;16.00;99.90;;;;;;4969724;28;20351;-72
2021/09/19 07:02:44;;;;;;;19.42;15.13;;;16.10;99.90;;;;;;4970678;28;20194;-72
2021/09/19 07:05:09;;;;;;;20.30;15.30;;;16.20;99.90;;;;;;4969018;28;20194;-74
2021/09/19 07:07:35;;;;;;;20.38;15.27;;;16.20;99.90;;;;;;4968962;28;20641;-74
2021/09/19 07:10:01;;;;;;;24.23;15.57;;;16.20;99.90;;;;;;4966557;28;20181;-75
2021/09/19 07:12:26;;;;;;;20.95;15.50;;;16.30;99.90;;;;;;4968650;28;20205;-73
2021/09/19 07:14:52;;;;;;;18.67;14.90;;;16.30;99.90;;;;;;4962879;28;20185;-73
2021/09/19 07:17:18;;;;;;;19.77;15.02;;;16.30;99.90;;;;;;4964693;28;20902;-75
2021/09/19 07:19:43;;;;;;;19.95;15.43;;;16.40;99.90;;;;;;4970785;28;20194;-74
2021/09/19 07:22:09;;;;;;;18.13;13.98;;;16.40;99.90;;;;;;4969353;28;20285;-73
2021/09/19 07:24:35;;;;;;;17.40;14.50;;;16.50;99.90;;;;;;4969290;28;20186;-75
2021/09/19 07:27:03;;;;;;;22.35;14.73;;;16.50;99.90;;;;;;4968790;28;20194;-73
2021/09/19 07:29:30;;;;;;;17.08;12.82;;;16.50;99.90;;;;;;4996858;28;20200;-74
2021/09/19 07:31:56;;;;;;;16.35;13.55;;;16.60;99.90;;;;;;4991755;28;20245;-74
2021/09/19 07:34:22;;;;;;;15.95;12.77;;;16.70;99.90;;;;;;4951175;28;20181;-75
2021/09/19 07:36:48;;;;;;;17.27;12.35;;;16.80;99.90;;;;;;4981506;28;20293;-73
2021/09/19 07:39:14;;;;;;;15.15;11.82;;;16.80;99.90;;;;;;4970974;28;20653;-74
2021/09/19 07:41:39;;;;;;;14.05;11.98;;;16.80;99.90;;;;;;4973210;28;20249;-74
2021/09/19 07:44:06;;;;;;;14.25;10.98;;;16.90;99.90;;;;;;4963772;28;20941;-74
2021/09/19 07:46:32;;;;;;;13.55;10.98;;;17.00;99.90;;;;;;4963148;28;20198;-74
2021/09/19 07:48:58;;;;;;;16.13;11.77;;;17.00;99.90;;;;;;5000261;28;20574;-73
2021/09/19 07:51:24;;;;;;;13.88;11.18;;;17.10;99.90;;;;;;4970146;28;20197;-73
2021/09/19 07:53:51;;;;;;;12.70;10.43;;;17.20;99.90;;;;;;4969384;28;20271;-73
2021/09/19 07:56:16;;;;;;;11.73;10.20;;;17.20;99.90;;;;;;4966598;28;20216;-73
2021/09/19 07:58:42;;;;;;;11.63;9.18;;;17.30;99.90;;;;;;4969869;28;20565;-74
2021/09/19 08:01:08;;;;;;;13.23;10.05;;;17.50;99.90;;;;;;4963948;28;20190;-73
2021/09/19 08:03:33;;;;;;;12.30;10.13;;;17.60;99.90;;;;;;4969856;28;20178;-73
2021/09/19 08:05:59;;;;;;;15.30;9.48;;;17.70;99.90;;;;;;4982790;28;20192;-74
2021/09/19 08:08:24;;;;;;;10.52;8.15;;;17.80;99.90;;;;;;4987328;28;20192;-72
2021/09/19 08:10:51;;;;;;;12.80;9.20;;;17.90;99.90;;;;;;4965161;28;20194;-73
2021/09/19 08:13:16;;;;;;;10.35;8.30;;;18.10;99.90;;;;;;4961382;28;20191;-74
2021/09/19 08:15:42;;;;;;;13.77;8.70;;;18.20;99.90;;;;;;4970725;28;20193;-73
2021/09/19 08:18:08;;;;;;;11.15;8.75;;;18.40;99.90;;;;;;4969161;28;20690;-73
2021/09/19 08:20:33;;;;;;;10.23;8.55;;;18.50;99.90;;;;;;4972923;28;20641;-73
2021/09/19 08:22:59;;;;;;;9.43;7.35;;;18.70;99.90;;;;;;4970545;28;20197;-73
2021/09/19 08:25:28;;;;;;;10.00;7.80;;;18.90;99.90;;;;;;4973186;28;20205;-76
2021/09/19 08:27:53;;;;;;;10.88;6.68;;;19.00;99.70;;;;;;4956346;28;20194;-73
2021/09/19 08:30:20;;;;;;;8.57;7.00;;;19.20;99.80;;;;;;4969038;28;20736;-72
2021/09/19 08:32:46;;;;;;;7.90;6.35;;;19.60;99.90;;;;;;4980759;28;20212;-73
2021/09/19 08:35:13;;;;;;;7.18;6.15;;;20.20;99.90;;;;;;4977372;28;20631;-75
2021/09/19 08:37:39;;;;;;;7.97;5.93;;;20.90;99.30;;;;;;4988417;28;20213;-77
2021/09/19 08:40:08;;;;;;;8.70;5.55;;;21.80;98.10;;;;;;4972745;28;20990;-75
2021/09/19 08:42:36;;;;;;;6.22;5.05;;;22.70;96.10;;;;;;4975850;28;20182;-75
2021/09/19 08:45:02;;;;;;;5.32;4.80;;;23.30;94.00;;;;;;4975349;28;20202;-74
2021/09/19 08:47:30;;;;;;;6.25;4.72;;;24.10;92.10;;;;;;4982711;28;20213;-77
2021/09/19 08:49:57;;;;;;;4.93;4.43;;;24.80;89.50;;;;;;4985361;28;20181;-76
2021/09/19 08:52:22;;;;;;;5.80;4.72;;;25.60;84.50;;;;;;4971628;28;20177;-76
2021/09/19 08:54:48;;;;;;;;;;;26.30;80.20;;;;;;4995726;28;20023;-75
2021/09/19 08:57:13;;;;;;;8.98;4.93;;;27.20;76.70;;;;;;4984088;28;20188;-75
2021/09/19 08:59:47;;;;;;;5.28;4.65;;;28.00;72.30;;;;;;4975923;28;20197;-75
2021/09/19 09:02:16;;;;;;;10.57;6.88;;;28.40;68.40;;;;;;4993449;28;20909;-76
2021/09/19 09:04:43;;;;;;;6.88;4.40;;;29.00;65.20;;;;;;4986393;28;20166;-75
2021/09/19 09:07:10;;;;;;;4.43;4.03;;;29.50;61.90;;;;;;4984050;28;20670;-75
2021/09/19 09:09:37;;;;;;;4.13;3.53;;;30.00;59.10;;;;;;4996427;28;20242;-75
2021/09/19 09:12:12;;;;;;;5.97;3.90;;;30.50;57.00;;;;;;4979578;28;20508;-76
2021/09/19 09:14:39;;;;;;;5.00;3.08;;;30.90;55.10;;;;;;4994014;28;20534;-76
2021/09/19 09:17:12;;;;;;;3.60;3.30;;;31.60;53.40;;;;;;4982831;28;20216;-75
2021/09/19 09:19:39;;;;;;;4.30;2.70;;;32.10;51.00;;;;;;4975183;28;20585;-75
2021/09/19 09:22:05;;;;;;;3.88;2.80;;;32.50;49.10;;;;;;4981329;28;20738;-75
2021/09/19 09:24:31;;;;;;;;;;;33.00;47.90;;;;;;4963196;28;20046;-75
2021/09/19 09:26:56;;;;;;;;;;;33.50;46.50;;;;;;4986375;28;19925;-75
2021/09/19 09:29:23;;;;;;;;;;;33.90;44.90;;;;;;4971432;28;20351;-75
2021/09/19 09:31:50;;;;;;;;;;;34.30;43.80;;;;;;4975280;28;19921;-76
2021/09/19 09:34:16;;;;;;;4.85;3.00;;;34.50;42.60;;;;;;4987172;28;20273;-75
2021/09/19 09:36:42;;;;;;;;;;;34.20;42.20;;;;;;4988241;28;20197;-75
2021/09/19 09:39:38;;;;;;;5.05;2.67;;;33.70;42.10;;;;;;4995527;28;20388;-75
2021/09/19 09:42:14;;;;;;;4.22;2.63;;;32.80;42.80;;;;;;4981941;28;20162;-75
2021/09/19 09:44:45;;;;;;;2.92;2.20;;;32.10;44.10;;;;;;4994553;28;20195;-76
2021/09/19 09:47:14;;;;;;;2.58;1.90;;;31.80;44.60;;;;;;4991865;28;20215;-78
2021/09/19 09:49:59;;;;;;;2.20;1.70;;;31.70;44.50;;;;;;4989891;28;20640;-71
2021/09/19 09:52:27;;;;;;;2.03;1.83;;;31.30;44.00;;;;;;4974961;28;20197;-73
2021/09/19 09:54:55;;;;;;;3.58;1.92;;;31.00;44.70;;;;;;4981705;28;20536;-73
2021/09/19 09:57:34;;;;;;;3.00;2.00;;;31.00;44.50;;;;;;4996757;28;20210;-71
2021/09/19 10:00:08;;;;;;;5.07;2.08;;;31.20;44.40;;;;;;4994342;28;20194;-71
2021/09/19 10:02:36;;;;;;;3.35;1.85;;;31.40;44.10;;;;;;4970758;28;20284;-75
2021/09/19 10:05:04;;;;;;;3.58;2.42;;;31.30;44.10;;;;;;4968641;28;20196;-75
2021/09/19 10:07:29;;;;;;;3.95;2.00;;;31.40;43.90;;;;;;4970625;28;20363;-71
2021/09/19 10:09:55;;;;;;;3.75;2.60;;;31.20;44.20;;;;;;4967424;28;20276;-71
2021/09/19 10:12:21;;;;;;;4.22;2.28;;;31.00;44.30;;;;;;4973051;28;20442;-71
2021/09/19 10:14:49;;;;;;;3.35;2.45;;;32.60;41.20;;;;;;4969807;28;20251;-72
2021/09/19 10:17:17;;;;;;;6.93;2.72;;;32.30;42.20;;;;;;4979933;28;20217;-72
2021/09/19 10:19:43;;;;;;;2.22;2.00;;;32.10;42.90;;;;;;4970149;28;20264;-74
2021/09/19 10:22:10;;;;;;;3.38;2.35;;;32.20;43.10;;;;;;4989853;28;20252;-77
2021/09/19 10:24:36;;;;;;;;;;;32.60;42.70;;;;;;4972346;28;20034;-74
2021/09/19 10:27:12;;;;;;;;;;;33.00;42.30;;;;;;4989810;28;19968;-75
2021/09/19 10:29:38;;;;;;;;;;;33.20;41.80;;;;;;4973880;28;20423;-74
2021/09/19 10:32:04;;;;;;;2.95;2.25;;;33.40;41.30;;;;;;4971334;28;20194;-75
2021/09/19 10:34:34;;;;;;;2.10;1.90;;;33.80;40.90;;;;;;4988096;28;20237;-74
2021/09/19 10:37:00;;;;;;;3.22;1.75;;;34.20;40.10;;;;;;4976096;28;20264;-74
2021/09/19 10:39:41;;;;;;;1.95;1.70;;;34.70;39.80;;;;;;4985363;28;20735;-76
2021/09/19 10:42:14;;;;;;;5.32;1.73;;;35.20;39.00;;;;;;4987147;28;20196;-76
2021/09/19 10:44:48;;;;;;;5.47;2.30;;;35.70;38.20;;;;;;4970336;28;20034;-77
2021/09/19 10:47:25;;;;;;;6.30;2.80;;;36.10;37.20;;;;;;4976931;28;20200;-74
2021/09/19 10:50:26;;;;;;;2.33;2.10;;;36.40;36.90;;;;;;4999387;28;20191;-76
2021/09/19 10:52:58;;;;;;;;;;;36.70;36.50;;;;;;4980380;28;20369;-74
2021/09/19 10:55:28;;;;;;;;;;;37.00;36.00;;;;;;4987223;28;20345;-76
2021/09/19 10:57:56;;;;;;;;;;;37.40;35.50;;;;;;4968978;28;19918;-77
2021/09/19 11:00:22;;;;;;;;;;;37.60;34.90;;;;;;5001066;28;19929;-76
2021/09/19 11:03:01;;;;;;;;;;;37.60;34.00;;;;;;4980553;28;19918;-76
2021/09/19 11:05:34;;;;;;;;;;;37.60;33.70;;;;;;4987017;28;19996;-76
2021/09/19 11:08:08;;;;;;;;;;;37.60;33.70;;;;;;4972191;28;20442;-76
2021/09/19 11:10:35;;;;;;;;;;;37.60;33.70;;;;;;4984529;28;19921;-76
2021/09/19 11:13:19;;;;;;;;;;;37.70;34.40;;;;;;4955645;28;19910;-76
2021/09/19 11:16:05;;;;;;;;;;;37.80;33.40;;;;;;4973127;28;20183;-73
2021/09/19 11:18:30;;;;;;;;;;;38.20;33.90;;;;;;4979814;28;19917;-72
2021/09/19 11:21:11;;;;;;;;;;;38.40;32.80;;;;;;4967414;28;20143;-74
2021/09/19 11:23:40;;;;;;;4.47;1.83;;;38.70;32.20;;;;;;4987087;28;19913;-74
2021/09/19 11:26:06;;;;;;;;;;;38.80;31.80;;;;;;4979583;28;20022;-78
2021/09/19 11:28:32;;;;;;;;;;;38.60;31.60;;;;;;4991504;28;19914;-79
2021/09/19 11:30:58;;;;;;;2.33;1.80;;;38.50;31.30;;;;;;4986390;28;20180;-77
2021/09/19 11:33:24;;;;;;;2.67;1.75;;;38.30;31.30;;;;;;4980485;28;20188;-76
2021/09/19 11:35:49;;;;;;;6.47;1.70;;;38.00;31.60;;;;;;4984224;28;20198;-76
2021/09/19 11:38:19;;;;;;;3.05;1.85;;;37.90;31.70;;;;;;4972311;28;20217;-76
2021/09/19 11:40:45;;;;;;;3.38;1.98;;;37.70;31.70;;;;;;4973288;28;20601;-77
2021/09/19 11:43:11;;;;;;;4.05;1.63;;;37.40;31.70;;;;;;4977285;28;20196;-78
2021/09/19 11:45:38;;;;;;;2.42;1.90;;;37.00;32.10;;;;;;4980883;28;20107;-77
2021/09/19 11:48:06;;;;;;;2.08;1.83;;;36.60;32.50;;;;;;4979335;28;20212;-77
2021/09/19 11:50:36;;;;;;;3.05;1.95;;;36.40;33.00;;;;;;4975622;28;20553;-78
2021/09/19 11:53:06;;;;;;;4.03;1.80;;;36.10;33.00;;;;;;4986536;28;20548;-77
2021/09/19 11:55:31;;;;;;;3.63;1.45;;;36.00;33.30;;;;;;4981996;28;20532;-77
2021/09/19 11:57:59;;;;;;;3.97;1.50;;;35.70;33.40;;;;;;4974744;28;20188;-78
2021/09/19 12:00:29;;;;;;;1.70;1.50;;;35.40;33.70;;;;;;4973107;28;20191;-77
2021/09/19 12:02:55;;;;;;;2.70;2.03;;;35.10;34.00;;;;;;4973619;28;20972;-77
2021/09/19 12:05:23;;;;;;;;;;;34.90;34.40;;;;;;5001436;28;20183;-78
2021/09/19 12:07:48;;;;;;;2.00;1.80;;;34.60;34.70;;;;;;4957384;28;20053;-76
2021/09/19 12:10:14;;;;;;;4.30;1.90;;;34.40;35.00;;;;;;4983301;28;20193;-76
2021/09/19 12:12:40;;;;;;;12.48;2.40;;;34.30;35.30;;;;;;4984086;28;20394;-76
2021/09/19 12:15:06;;;;;;;2.92;1.80;;;33.90;36.20;;;;;;4980965;28;20203;-77
2021/09/19 12:17:31;;;;;;;2.72;1.90;;;33.70;36.30;;;;;;4975284;28;20215;-76
2021/09/19 12:20:00;;;;;;;2.83;1.85;;;33.50;36.50;;;;;;4978834;28;20208;-77
2021/09/19 12:22:26;;;;;;;1.92;1.83;;;33.30;36.70;;;;;;4982058;28;20171;-79
2021/09/19 12:24:54;;;;;;;3.70;2.10;;;33.00;36.90;;;;;;4976455;28;20657;-77
2021/09/19 12:27:26;;;;;;;4.30;1.98;;;32.60;37.30;;;;;;4967404;28;20311;-78
2021/09/19 12:30:16;;;;;;;2.55;1.70;;;32.30;38.00;;;;;;4980402;28;20192;-80
2021/09/19 12:32:52;;;;;;;3.58;2.33;;;32.40;38.20;;;;;;4975886;28;20222;-77
2021/09/19 12:35:29;;;;;;;4.30;2.20;;;32.60;37.80;;;;;;4992014;28;20188;-77
2021/09/19 12:37:55;;;;;;;;;;;32.90;37.90;;;;;;4976552;28;20223;-78
2021/09/19 12:40:23;;;;;;;4.07;1.80;;;33.20;37.80;;;;;;4979591;28;20361;-78
2021/09/19 12:42:50;;;;;;;2.10;1.80;;;33.50;37.70;;;;;;4979391;28;20199;-75
2021/09/19 12:45:20;;;;;;;2.85;2.10;;;33.60;37.40;;;;;;4988364;28;20204;-79
2021/09/19 12:47:55;;;;;;;3.03;2.17;;;33.80;37.50;;;;;;4979219;28;20649;-77
2021/09/19 12:50:21;;;;;;;5.72;2.50;;;33.90;37.50;;;;;;4985175;28;20258;-79